Lack, Pennsylvania
Current Conditions -  °F | °C
As of 1:53 PM on Monday 20 Oct 2014 (Local Time) from KAOO Reporting Station
Few Clouds Few Clouds  
Wind Chill: 54°   Ceiling: Unl
Heat Index: 54°   Visibility: 10mi
Dew Point: 39°   Wind: 12mph
Humidity: 57%   Direction: 210°SSW
Pressure: 29.95"   Gusts: NA
Location:  40.2561°N, 77.7747°W
Report Text: KAOO 201753Z AUTO 21010KT 10SM FEW120 12/04 A2995 RMK AO2 SLP146 T01220039 10133 20061 56028
Loading
Personal Weather Stations






























Interactive Weather Map
Tropical Storm Tracking
New forecast layout! Learn more

10-Day Weather Forecast

Advertisements
Track Severe Weather on mobile